Terminal Aerodrome Forecast
Issued by NWS

Current Version | Previous Version | Text Only | Print | Product List | Glossary Off
Versions: 1 2 3 4 5 6 7 8 9 10 11 12 13 14 15 16 17 18 19 20 21 22 23 24

999
FTUS41 KRLX 290812 AAA
TAFCKB
TAF AMD
KCKB 290812Z 2908/3006 VRB03KT 1/2SM FG BKN003
     FM291200 00000KT 2SM BR SCT001 OVC010
     FM291500 26005KT 3SM HZ BKN015
     FM291800 30006KT P6SM BKN045=

USA.gov is the U.S. government's official web portal to all federal, state and local government web resources and services.